^^
Saratoga-Weather Station Historical Data
Daily Summary for August 17, 2021 Units:  Both    English   Metric
Daily Weekly Monthly Yearly Custom
  High: Low: Average:
Temperature: 62.1 °F /  16.7 °C 48.2 °F /  9 °C 53.8 °F /  12.1 °C
Dew Point: 52.2 °F /  11.2 °C 45.9 °F /  7.7 °C 48.4 °F /  9.1 °C
Humidity: 94% 61% 83%
Wind Speed: 13mph /  20.9km/h - 2mph /  3.2km/h
Wind Gust: 14mph /  22.5km/h - -
Wind- - SW
Pressure: 29.7 in /  1004.4 hPa 29.5 in /  1000.3 hPa -
Precipitation: 0.28 in /  7.1 mm    
Historical Graphs
 
 
Tabular Data for August 17, 2021
Time Temperature Dew Point Pressure Wind Wind Speed Wind Gust Humidity Rainfall Rate (Hourly) solar
00:04 48.7 °F /  9.3 °C 46.2 °F /  7.9 °C 29.7in /  1004.1hPa NNE 0.9mph /  1.4km/h 4mph /  6.4km/h 91% 0in /  0.0mm 0 W/m2
00:09 48.7 °F /  9.3 °C 46.2 °F /  7.9 °C 29.7in /  1004.1hPa NNE 0.9mph /  1.4km/h 1mph /  1.6km/h 91% 0in /  0.0mm 0 W/m2
00:14 48.7 °F /  9.3 °C 46.2 °F /  7.9 °C 29.7in /  1004.1hPa Calm   4mph /  6.4km/h 91% 0in /  0.0mm 0 W/m2
00:19 48.7 °F /  9.3 °C 46.2 °F /  7.9 °C 29.7in /  1004.1hPa Calm   4mph /  6.4km/h 91% 0in /  0.0mm 0 W/m2
00:24 48.7 °F /  9.3 °C 46.2 °F /  7.9 °C 29.7in /  1004.1hPa Calm   1mph /  1.6km/h 91% 0in /  0.0mm 0 W/m2
00:29 48.7 °F /  9.3 °C 46.2 °F /  7.9 °C 29.7in /  1004.4hPa Calm   4mph /  6.4km/h 91% 0in /  0.0mm 0 W/m2
00:34 48.7 °F /  9.3 °C 46.2 °F /  7.9 °C 29.7in /  1004.4hPa NNW 2.9mph /  4.7km/h 3mph /  4.8km/h 91% 0in /  0.0mm 0 W/m2
00:39 48.7 °F /  9.3 °C 46.2 °F /  7.9 °C 29.7in /  1004.4hPa WNW 0.9mph /  1.4km/h 4mph /  6.4km/h 91% 0in /  0.0mm 0 W/m2
00:44 48.6 °F /  9.2 °C 46 °F /  7.8 °C 29.7in /  1004.4hPa Calm   2mph /  3.2km/h 91% 0in /  0.0mm 0 W/m2
00:49 48.6 °F /  9.2 °C 46 °F /  7.8 °C 29.7in /  1004.4hPa Calm   2mph /  3.2km/h 91% 0in /  0.0mm 0 W/m2
00:54 48.4 °F /  9.1 °C 45.9 °F /  7.7 °C 29.7in /  1004.4hPa Calm   2mph /  3.2km/h 91% 0in /  0.0mm 0 W/m2
00:59 48.4 °F /  9.1 °C 46.2 °F /  7.9 °C 29.7in /  1004.4hPa Calm   2mph /  3.2km/h 92% 0in /  0.0mm 0 W/m2
01:04 48.4 °F /  9.1 °C 46.2 °F /  7.9 °C 29.7in /  1004.4hPa WSW 0.9mph /  1.4km/h 4mph /  6.4km/h 92% 0in /  0.0mm 0 W/m2
01:09 48.4 °F /  9.1 °C 46.2 °F /  7.9 °C 29.7in /  1004.4hPa South 2mph /  3.2km/h 3mph /  4.8km/h 92% 0in /  0.0mm 0 W/m2
01:14 48.4 °F /  9.1 °C 46.2 °F /  7.9 °C 29.7in /  1004.4hPa NNE 0.9mph /  1.4km/h 3mph /  4.8km/h 92% 0in /  0.0mm 0 W/m2
01:19 48.6 °F /  9.2 °C 46.4 °F /  8 °C 29.7in /  1004.4hPa NNE 0.9mph /  1.4km/h 2mph /  3.2km/h 92% 0in /  0.0mm 0 W/m2
01:24 48.6 °F /  9.2 °C 46.4 °F /  8 °C 29.7in /  1004.4hPa Calm     92% 0in /  0.0mm 0 W/m2
01:29 48.4 °F /  9.1 °C 46.2 °F /  7.9 °C 29.7in /  1004.1hPa North 0.9mph /  1.4km/h 2mph /  3.2km/h 92% 0in /  0.0mm 0 W/m2
01:34 48.4 °F /  9.1 °C 46.2 °F /  7.9 °C 29.7in /  1004.1hPa NE 0.9mph /  1.4km/h 1mph /  1.6km/h 92% 0in /  0.0mm 0 W/m2
01:39 48.4 °F /  9.1 °C 46.2 °F /  7.9 °C 29.7in /  1004.1hPa Calm   3mph /  4.8km/h 92% 0in /  0.0mm 0 W/m2
01:44 48.4 °F /  9.1 °C 46.2 °F /  7.9 °C 29.7in /  1004.1hPa NNE 0.9mph /  1.4km/h 1mph /  1.6km/h 92% 0in /  0.0mm 0 W/m2
01:49 48.2 °F /  9 °C 46 °F /  7.8 °C 29.7in /  1004.1hPa Calm   1mph /  1.6km/h 92% 0in /  0.0mm 0 W/m2
01:54 48.4 °F /  9.1 °C 46.2 °F /  7.9 °C 29.7in /  1004.1hPa Calm   3mph /  4.8km/h 92% 0in /  0.0mm 0 W/m2
01:59 48.4 °F /  9.1 °C 46.2 °F /  7.9 °C 29.7in /  1004.1hPa North 0.9mph /  1.4km/h 2mph /  3.2km/h 92% 0in /  0.0mm 0 W/m2
02:04 48.4 °F /  9.1 °C 46.2 °F /  7.9 °C 29.7in /  1004.1hPa East 2mph /  3.2km/h 2mph /  3.2km/h 92% 0in /  0.0mm 0 W/m2
02:09 48.4 °F /  9.1 °C 46.2 °F /  7.9 °C 29.7in /  1004.1hPa NW 2.9mph /  4.7km/h 4mph /  6.4km/h 92% 0in /  0.0mm 0 W/m2
02:14 48.6 °F /  9.2 °C 46.4 °F /  8 °C 29.7in /  1004.1hPa Calm   1mph /  1.6km/h 92% 0in /  0.0mm 0 W/m2
02:19 48.6 °F /  9.2 °C 46.6 °F /  8.1 °C 29.7in /  1004.1hPa South 2mph /  3.2km/h 3mph /  4.8km/h 93% 0in /  0.0mm 0 W/m2
02:24 48.6 °F /  9.2 °C 46.6 °F /  8.1 °C 29.7in /  1004.1hPa Calm   1mph /  1.6km/h 93% 0in /  0.0mm 0 W/m2
02:29 48.7 °F /  9.3 °C 46.8 °F /  8.2 °C 29.7in /  1004.1hPa ESE 0.9mph /  1.4km/h 2mph /  3.2km/h 93% 0in /  0.0mm 0 W/m2
02:34 48.7 °F /  9.3 °C 46.8 °F /  8.2 °C 29.7in /  1004.1hPa Calm   2mph /  3.2km/h 93% 0in /  0.0mm 0 W/m2
02:39 48.7 °F /  9.3 °C 46.8 °F /  8.2 °C 29.7in /  1004.1hPa Calm   1mph /  1.6km/h 93% 0in /  0.0mm 0 W/m2
02:44 48.7 °F /  9.3 °C 46.8 °F /  8.2 °C 29.7in /  1004.1hPa Calm   2mph /  3.2km/h 93% 0in /  0.0mm 0 W/m2
02:49 48.7 °F /  9.3 °C 46.8 °F /  8.2 °C 29.6in /  1003.7hPa NW 0.9mph /  1.4km/h 3mph /  4.8km/h 93% 0in /  0.0mm 0 W/m2
02:54 48.7 °F /  9.3 °C 46.8 °F /  8.2 °C 29.6in /  1003.7hPa Calm   3mph /  4.8km/h 93% 0in /  0.0mm 0 W/m2
02:59 48.7 °F /  9.3 °C 46.8 °F /  8.2 °C 29.7in /  1004.1hPa NNW 2mph /  3.2km/h 4mph /  6.4km/h 93% 0in /  0.0mm 0 W/m2
03:05 48.9 °F /  9.4 °C 46.9 °F /  8.3 °C 29.6in /  1003.7hPa NW 0.9mph /  1.4km/h 3mph /  4.8km/h 93% 0in /  0.0mm 0 W/m2
03:10 48.9 °F /  9.4 °C 46.9 °F /  8.3 °C 29.6in /  1003.7hPa Calm   2mph /  3.2km/h 93% 0in /  0.0mm 0 W/m2
03:15 48.9 °F /  9.4 °C 46.9 °F /  8.3 °C 29.6in /  1003.7hPa NW 0.9mph /  1.4km/h 4mph /  6.4km/h 93% 0in /  0.0mm 0 W/m2
03:20 48.9 °F /  9.4 °C 46.9 °F /  8.3 °C 29.6in /  1003.7hPa North 2mph /  3.2km/h 4mph /  6.4km/h 93% 0in /  0.0mm 0 W/m2
03:25 48.9 °F /  9.4 °C 46.9 °F /  8.3 °C 29.6in /  1003.7hPa Calm   3mph /  4.8km/h 93% 0in /  0.0mm 0 W/m2
03:30 48.9 °F /  9.4 °C 46.9 °F /  8.3 °C 29.6in /  1003.7hPa Calm   4mph /  6.4km/h 93% 0in /  0.0mm 0 W/m2
03:35 48.9 °F /  9.4 °C 46.9 °F /  8.3 °C 29.6in /  1003.7hPa NW 0.9mph /  1.4km/h 3mph /  4.8km/h 93% 0in /  0.0mm 0 W/m2
03:40 48.7 °F /  9.3 °C 46.8 °F /  8.2 °C 29.6in /  1003.7hPa NNE 0.9mph /  1.4km/h 4mph /  6.4km/h 93% 0in /  0.0mm 0 W/m2
03:45 48.7 °F /  9.3 °C 46.8 °F /  8.2 °C 29.6in /  1003.7hPa NNE 0.9mph /  1.4km/h 1mph /  1.6km/h 93% 0in /  0.0mm 0 W/m2
03:50 48.9 °F /  9.4 °C 46.9 °F /  8.3 °C 29.6in /  1003.7hPa Calm   1mph /  1.6km/h 93% 0in /  0.0mm 0 W/m2
03:55 48.9 °F /  9.4 °C 46.9 °F /  8.3 °C 29.6in /  1003.7hPa North 0.9mph /  1.4km/h 3mph /  4.8km/h 93% 0in /  0.0mm 0 W/m2
04:00 48.9 °F /  9.4 °C 46.9 °F /  8.3 °C 29.6in /  1003.7hPa NNW 0.9mph /  1.4km/h 2mph /  3.2km/h 93% 0in /  0.0mm 0 W/m2
04:05 48.9 °F /  9.4 °C 46.9 °F /  8.3 °C 29.6in /  1003.7hPa Calm   2mph /  3.2km/h 93% 0in /  0.0mm 0 W/m2
04:10 49.1 °F /  9.5 °C 47.1 °F /  8.4 °C 29.6in /  1003.7hPa NW 4mph /  6.4km/h 7mph /  11.3km/h 93% 0in /  0.0mm 0 W/m2
04:15 49.1 °F /  9.5 °C 47.1 °F /  8.4 °C 29.6in /  1003.7hPa Calm   4mph /  6.4km/h 93% 0in /  0.0mm 0 W/m2
04:20 49.3 °F /  9.6 °C 47.3 °F /  8.5 °C 29.6in /  1003.7hPa Calm   3mph /  4.8km/h 93% 0in /  0.0mm 0 W/m2
04:25 49.3 °F /  9.6 °C 47.3 °F /  8.5 °C 29.6in /  1003.4hPa ENE 0.9mph /  1.4km/h 4mph /  6.4km/h 93% 0in /  0.0mm 0 W/m2
04:30 49.3 °F /  9.6 °C 47.3 °F /  8.5 °C 29.6in /  1003.4hPa NE 2mph /  3.2km/h 3mph /  4.8km/h 93% 0in /  0.0mm 0 W/m2
04:35 49.3 °F /  9.6 °C 47.3 °F /  8.5 °C 29.6in /  1003.4hPa NE 0.9mph /  1.4km/h 2mph /  3.2km/h 93% 0in /  0.0mm 0 W/m2
04:40 49.3 °F /  9.6 °C 47.3 °F /  8.5 °C 29.6in /  1003.4hPa NE 0.9mph /  1.4km/h 2mph /  3.2km/h 93% 0in /  0.0mm 0 W/m2
04:45 49.5 °F /  9.7 °C 47.5 °F /  8.6 °C 29.6in /  1003.4hPa Calm   1mph /  1.6km/h 93% 0.02in /  0.5mm 0 W/m2
04:50 49.5 °F /  9.7 °C 47.5 °F /  8.6 °C 29.6in /  1003.4hPa North 2.9mph /  4.7km/h 3mph /  4.8km/h 93% 0.02in /  0.5mm 0 W/m2
04:55 49.3 °F /  9.6 °C 47.3 °F /  8.5 °C 29.6in /  1003.4hPa NW 2mph /  3.2km/h 2mph /  3.2km/h 93% 0.02in /  0.5mm 0 W/m2
05:00 49.3 °F /  9.6 °C 47.3 °F /  8.5 °C 29.6in /  1003.4hPa Calm   4mph /  6.4km/h 93% 0.02in /  0.5mm 0 W/m2
05:05 49.3 °F /  9.6 °C 47.3 °F /  8.5 °C 29.6in /  1003.4hPa West 0.9mph /  1.4km/h 5mph /  8km/h 93% 0.02in /  0.5mm 0 W/m2
05:10 49.3 °F /  9.6 °C 47.3 °F /  8.5 °C 29.6in /  1003.4hPa Calm   3mph /  4.8km/h 93% 0.02in /  0.5mm 0 W/m2
05:15 49.3 °F /  9.6 °C 47.3 °F /  8.5 °C 29.6in /  1003.4hPa West 0.9mph /  1.4km/h 6mph /  9.7km/h 93% 0.02in /  0.5mm 0 W/m2
05:20 49.3 °F /  9.6 °C 47.3 °F /  8.5 °C 29.6in /  1003.4hPa Calm   3mph /  4.8km/h 93% 0.02in /  0.5mm 0 W/m2
05:25 49.5 °F /  9.7 °C 47.5 °F /  8.6 °C 29.6in /  1003.4hPa North 0.9mph /  1.4km/h 6mph /  9.7km/h 93% 0.02in /  0.5mm 0 W/m2
05:30 49.5 °F /  9.7 °C 47.5 °F /  8.6 °C 29.6in /  1003.4hPa East 2mph /  3.2km/h 6mph /  9.7km/h 93% 0.02in /  0.5mm 0 W/m2
05:35 49.5 °F /  9.7 °C 47.5 °F /  8.6 °C 29.6in /  1003.4hPa NE 2.9mph /  4.7km/h 3mph /  4.8km/h 93% 0.02in /  0.5mm 0 W/m2
05:40 49.5 °F /  9.7 °C 47.5 °F /  8.6 °C 29.6in /  1003.4hPa WNW 6mph /  9.7km/h 7mph /  11.3km/h 93% 0.02in /  0.5mm 0 W/m2
05:45 49.5 °F /  9.7 °C 47.5 °F /  8.6 °C 29.6in /  1003.4hPa WSW 0.9mph /  1.4km/h 2mph /  3.2km/h 93% 0.01in /  0.2mm 0 W/m2
05:50 49.3 °F /  9.6 °C 47.3 °F /  8.5 °C 29.6in /  1003.4hPa NNE 0.9mph /  1.4km/h 2mph /  3.2km/h 93% 0.02in /  0.5mm 0 W/m2
05:55 49.3 °F /  9.6 °C 47.3 °F /  8.5 °C 29.6in /  1003.4hPa NNE 0.9mph /  1.4km/h 1mph /  1.6km/h 93% 0.02in /  0.5mm 0 W/m2
06:00 49.3 °F /  9.6 °C 47.3 °F /  8.5 °C 29.6in /  1003.4hPa NNE 2mph /  3.2km/h 3mph /  4.8km/h 93% 0.01in /  0.2mm 0 W/m2
06:05 49.3 °F /  9.6 °C 47.3 °F /  8.5 °C 29.6in /  1003.4hPa WNW 0.9mph /  1.4km/h 2mph /  3.2km/h 93% 0.01in /  0.2mm 0 W/m2
06:10 49.3 °F /  9.6 °C 47.3 °F /  8.5 °C 29.6in /  1003.4hPa NW 2.9mph /  4.7km/h 4mph /  6.4km/h 93% 0.01in /  0.2mm 5 W/m2
06:15 49.3 °F /  9.6 °C 47.3 °F /  8.5 °C 29.6in /  1003.4hPa WNW 0.9mph /  1.4km/h 4mph /  6.4km/h 93% 0.01in /  0.2mm 7 W/m2
06:20 49.5 °F /  9.7 °C 47.5 °F /  8.6 °C 29.6in /  1003.4hPa South 0.9mph /  1.4km/h 3mph /  4.8km/h 93% 0.01in /  0.2mm 9 W/m2
06:25 49.5 °F /  9.7 °C 47.5 °F /  8.6 °C 29.6in /  1003.4hPa West 2mph /  3.2km/h 3mph /  4.8km/h 93% 0.01in /  0.2mm 14 W/m2
06:30 49.5 °F /  9.7 °C 47.5 °F /  8.6 °C 29.6in /  1003.4hPa NW 0.9mph /  1.4km/h 3mph /  4.8km/h 93% 0.01in /  0.2mm 12 W/m2
06:35 49.5 °F /  9.7 °C 47.5 °F /  8.6 °C 29.6in /  1003.4hPa NW 2mph /  3.2km/h 6mph /  9.7km/h 93% 0.01in /  0.2mm 12 W/m2
06:40 49.5 °F /  9.7 °C 47.5 °F /  8.6 °C 29.6in /  1003.7hPa West 0.9mph /  1.4km/h 5mph /  8km/h 93% 0.01in /  0.2mm 16 W/m2
06:45 49.5 °F /  9.7 °C 47.8 °F /  8.8 °C 29.6in /  1003.7hPa Calm   2mph /  3.2km/h 94% 0.01in /  0.2mm 21 W/m2
06:50 49.5 °F /  9.7 °C 47.5 °F /  8.6 °C 29.6in /  1003.7hPa SSW 0.9mph /  1.4km/h 5mph /  8km/h 93% 0in /  0.0mm 21 W/m2
06:55 49.6 °F /  9.8 °C 47.7 °F /  8.7 °C 29.6in /  1003.7hPa WNW 2mph /  3.2km/h 5mph /  8km/h 93% 0in /  0.0mm 28 W/m2
07:00 49.6 °F /  9.8 °C 47.7 °F /  8.7 °C 29.6in /  1003.7hPa West 4mph /  6.4km/h 8mph /  12.9km/h 93% 0in /  0.0mm 32 W/m2
07:05 49.6 °F /  9.8 °C 47.7 °F /  8.7 °C 29.6in /  1003.7hPa Calm   4mph /  6.4km/h 93% 0in /  0.0mm 65 W/m2
07:10 49.6 °F /  9.8 °C 47.7 °F /  8.7 °C 29.6in /  1003.7hPa SSE 0.9mph /  1.4km/h 8mph /  12.9km/h 93% 0in /  0.0mm 84 W/m2
07:15 49.8 °F /  9.9 °C 47.8 °F /  8.8 °C 29.6in /  1003.7hPa Calm   2mph /  3.2km/h 93% 0in /  0.0mm 47 W/m2
07:20 49.8 °F /  9.9 °C 47.8 °F /  8.8 °C 29.6in /  1003.7hPa NNE 0.9mph /  1.4km/h 4mph /  6.4km/h 93% 0in /  0.0mm 49 W/m2
07:26 50 °F /  10 °C 48 °F /  8.9 °C 29.6in /  1003.7hPa Calm   3mph /  4.8km/h 93% 0in /  0.0mm 44 W/m2
07:31 50 °F /  10 °C 48 °F /  8.9 °C 29.7in /  1004.1hPa ESE 2mph /  3.2km/h 5mph /  8km/h 93% 0in /  0.0mm 44 W/m2
07:36 50 °F /  10 °C 48 °F /  8.9 °C 29.7in /  1004.1hPa WSW 2mph /  3.2km/h 3mph /  4.8km/h 93% 0in /  0.0mm 86 W/m2
07:41 50.2 °F /  10.1 °C 48.2 °F /  9 °C 29.7in /  1004.1hPa West 0.9mph /  1.4km/h 5mph /  8km/h 93% 0in /  0.0mm 70 W/m2
07:46 50.4 °F /  10.2 °C 48.2 °F /  9 °C 29.7in /  1004.1hPa NNW 2mph /  3.2km/h 2mph /  3.2km/h 92% 0in /  0.0mm 83 W/m2
07:51 50.4 °F /  10.2 °C 48.2 °F /  9 °C 29.7in /  1004.1hPa WSW 2.9mph /  4.7km/h 5mph /  8km/h 92% 0in /  0.0mm 60 W/m2
07:56 50.4 °F /  10.2 °C 48.2 °F /  9 °C 29.7in /  1004.1hPa WSW 4mph /  6.4km/h 8mph /  12.9km/h 92% 0in /  0.0mm 77 W/m2
08:01 50.5 °F /  10.3 °C 48.4 °F /  9.1 °C 29.7in /  1004.1hPa WNW 2.9mph /  4.7km/h 8mph /  12.9km/h 92% 0in /  0.0mm 156 W/m2
08:06 50.7 °F /  10.4 °C 48.6 °F /  9.2 °C 29.7in /  1004.1hPa West 2.9mph /  4.7km/h 6mph /  9.7km/h 92% 0in /  0.0mm 77 W/m2
08:11 50.7 °F /  10.4 °C 48.6 °F /  9.2 °C 29.7in /  1004.1hPa WNW 4.9mph /  7.9km/h 10mph /  16.1km/h 92% 0in /  0.0mm 121 W/m2
08:16 50.9 °F /  10.5 °C 48.4 °F /  9.1 °C 29.7in /  1004.1hPa NW 2.9mph /  4.7km/h 9mph /  14.5km/h 91% 0in /  0.0mm 172 W/m2
08:21 51.3 °F /  10.7 °C 48.7 °F /  9.3 °C 29.7in /  1004.1hPa West 6mph /  9.7km/h 8mph /  12.9km/h 91% 0in /  0.0mm 158 W/m2
08:26 51.3 °F /  10.7 °C 48.4 °F /  9.1 °C 29.7in /  1004.1hPa Calm   9mph /  14.5km/h 90% 0in /  0.0mm 134 W/m2
08:31 51.4 °F /  10.8 °C 48.6 °F /  9.2 °C 29.7in /  1004.1hPa NW 2mph /  3.2km/h 5mph /  8km/h 90% 0in /  0.0mm 132 W/m2
08:36 51.4 °F /  10.8 °C 48.6 °F /  9.2 °C 29.7in /  1004.1hPa SW 0.9mph /  1.4km/h 5mph /  8km/h 90% 0in /  0.0mm 160 W/m2
08:41 51.4 °F /  10.8 °C 48.6 °F /  9.2 °C 29.7in /  1004.1hPa West 2mph /  3.2km/h 6mph /  9.7km/h 90% 0in /  0.0mm 188 W/m2
08:46 51.6 °F /  10.9 °C 48.7 °F /  9.3 °C 29.7in /  1004.1hPa WSW 4mph /  6.4km/h 4mph /  6.4km/h 90% 0in /  0.0mm 234 W/m2
08:51 52 °F /  11.1 °C 49.1 °F /  9.5 °C 29.7in /  1004.1hPa WNW 2mph /  3.2km/h 3mph /  4.8km/h 90% 0in /  0.0mm 403 W/m2
08:56 52.3 °F /  11.3 °C 49.3 °F /  9.6 °C 29.7in /  1004.1hPa WNW 2mph /  3.2km/h 2mph /  3.2km/h 89% 0in /  0.0mm 475 W/m2
09:01 52.9 °F /  11.6 °C 49.6 °F /  9.8 °C 29.7in /  1004.1hPa NW 2.9mph /  4.7km/h 4mph /  6.4km/h 89% 0in /  0.0mm 102 W/m2
09:06 52.5 °F /  11.4 °C 48.7 °F /  9.3 °C 29.7in /  1004.1hPa Calm   3mph /  4.8km/h 87% 0in /  0.0mm 76 W/m2
09:11 52.5 °F /  11.4 °C 49.1 °F /  9.5 °C 29.7in /  1004.1hPa Calm   2mph /  3.2km/h 88% 0in /  0.0mm 155 W/m2
09:16 52.5 °F /  11.4 °C 49.1 °F /  9.5 °C 29.7in /  1004.1hPa West 2mph /  3.2km/h 2mph /  3.2km/h 88% 0in /  0.0mm 104 W/m2
09:21 52.3 °F /  11.3 °C 48.6 °F /  9.2 °C 29.7in /  1004.1hPa NE 2mph /  3.2km/h 4mph /  6.4km/h 87% 0in /  0.0mm 98 W/m2
09:26 52.3 °F /  11.3 °C 48.9 °F /  9.4 °C 29.7in /  1004.1hPa SSW 2.9mph /  4.7km/h 3mph /  4.8km/h 88% 0in /  0.0mm 111 W/m2
09:31 52.3 °F /  11.3 °C 48.6 °F /  9.2 °C 29.7in /  1004.1hPa WSW 2mph /  3.2km/h 8mph /  12.9km/h 87% 0in /  0.0mm 519 W/m2
09:36 52.5 °F /  11.4 °C 49.1 °F /  9.5 °C 29.7in /  1004.1hPa WNW 0.9mph /  1.4km/h 4mph /  6.4km/h 88% 0in /  0.0mm 127 W/m2
09:41 52.5 °F /  11.4 °C 48.7 °F /  9.3 °C 29.7in /  1004.1hPa WNW 2mph /  3.2km/h 8mph /  12.9km/h 87% 0in /  0.0mm 568 W/m2
09:46 52.9 °F /  11.6 °C 49.1 °F /  9.5 °C 29.7in /  1004.1hPa NW 4.9mph /  7.9km/h 7mph /  11.3km/h 87% 0in /  0.0mm 225 W/m2
09:51 53.1 °F /  11.7 °C 48.9 °F /  9.4 °C 29.7in /  1004.1hPa WNW 0.9mph /  1.4km/h 3mph /  4.8km/h 86% 0in /  0.0mm 100 W/m2
09:56 52.9 °F /  11.6 °C 48.7 °F /  9.3 °C 29.7in /  1004.1hPa Calm   6mph /  9.7km/h 86% 0in /  0.0mm 98 W/m2
10:01 52.9 °F /  11.6 °C 48.7 °F /  9.3 °C 29.7in /  1004.1hPa West 6mph /  9.7km/h 7mph /  11.3km/h 86% 0in /  0.0mm 181 W/m2
10:06 53.1 °F /  11.7 °C 49.3 °F /  9.6 °C 29.7in /  1004.1hPa West 2.9mph /  4.7km/h 4mph /  6.4km/h 87% 0in /  0.0mm 253 W/m2
10:11 53.4 °F /  11.9 °C 49.3 °F /  9.6 °C 29.7in /  1004.1hPa Calm   3mph /  4.8km/h 86% 0in /  0.0mm 710 W/m2
10:16 54.1 °F /  12.3 °C 49.8 °F /  9.9 °C 29.7in /  1004.1hPa SE 2mph /  3.2km/h 4mph /  6.4km/h 85% 0in /  0.0mm 756 W/m2
10:21 54.7 °F /  12.6 °C 49.3 °F /  9.6 °C 29.7in /  1004.1hPa South 0.9mph /  1.4km/h 9mph /  14.5km/h 82% 0in /  0.0mm 299 W/m2
10:26 55 °F /  12.8 °C 49.6 °F /  9.8 °C 29.6in /  1003.7hPa NNW 0.9mph /  1.4km/h 4mph /  6.4km/h 82% 0in /  0.0mm 297 W/m2
10:31 55.6 °F /  13.1 °C 49.5 °F /  9.7 °C 29.7in /  1004.1hPa NNW 4.9mph /  7.9km/h 9mph /  14.5km/h 80% 0in /  0.0mm 796 W/m2
10:36 56.1 °F /  13.4 °C 50.4 °F /  10.2 °C 29.6in /  1003.7hPa WNW 4mph /  6.4km/h 4mph /  6.4km/h 81% 0in /  0.0mm 749 W/m2
10:41 55.9 °F /  13.3 °C 49.1 °F /  9.5 °C 29.6in /  1003.7hPa NNE 2.9mph /  4.7km/h 9mph /  14.5km/h 78% 0in /  0.0mm 178 W/m2
10:46 55.2 °F /  12.9 °C 48.7 °F /  9.3 °C 29.6in /  1003.7hPa WNW 4mph /  6.4km/h 5mph /  8km/h 79% 0in /  0.0mm 176 W/m2
10:51 55.2 °F /  12.9 °C 49.1 °F /  9.5 °C 29.6in /  1003.7hPa WNW 2mph /  3.2km/h 8mph /  12.9km/h 80% 0in /  0.0mm 756 W/m2
10:56 55.8 °F /  13.2 °C 49.6 °F /  9.8 °C 29.6in /  1003.7hPa WSW 6mph /  9.7km/h 6mph /  9.7km/h 80% 0in /  0.0mm 819 W/m2
11:01 55.9 °F /  13.3 °C 49.1 °F /  9.5 °C 29.6in /  1003.7hPa SW 2mph /  3.2km/h 8mph /  12.9km/h 78% 0in /  0.0mm 169 W/m2
11:06 55.9 °F /  13.3 °C 48.9 °F /  9.4 °C 29.6in /  1003.7hPa West 2.9mph /  4.7km/h 6mph /  9.7km/h 77% 0in /  0.0mm 821 W/m2
11:11 56.3 °F /  13.5 °C 48.9 °F /  9.4 °C 29.6in /  1003.7hPa West 0.9mph /  1.4km/h 11mph /  17.7km/h 76% 0in /  0.0mm 900 W/m2
11:16 56.5 °F /  13.6 °C 48.7 °F /  9.3 °C 29.6in /  1003.7hPa South 2mph /  3.2km/h 8mph /  12.9km/h 75% 0in /  0.0mm 195 W/m2
11:21 56.1 °F /  13.4 °C 48 °F /  8.9 °C 29.6in /  1003.7hPa NW 2mph /  3.2km/h 8mph /  12.9km/h 74% 0in /  0.0mm 236 W/m2
11:26 55.9 °F /  13.3 °C 48.2 °F /  9 °C 29.6in /  1003.7hPa ESE 2.9mph /  4.7km/h 3mph /  4.8km/h 75% 0in /  0.0mm 141 W/m2
11:31 55.8 °F /  13.2 °C 47.7 °F /  8.7 °C 29.6in /  1003.7hPa West 2.9mph /  4.7km/h 8mph /  12.9km/h 74% 0in /  0.0mm 236 W/m2
11:36 55.8 °F /  13.2 °C 47.7 °F /  8.7 °C 29.6in /  1003.7hPa NW 8.1mph /  13km/h 8mph /  12.9km/h 74% 0in /  0.0mm 949 W/m2
11:41 56.3 °F /  13.5 °C 48.2 °F /  9 °C 29.6in /  1003.7hPa West 4mph /  6.4km/h 8mph /  12.9km/h 74% 0in /  0.0mm 1021 W/m2
11:46 56.8 °F /  13.8 °C 47.8 °F /  8.8 °C 29.6in /  1003.4hPa West 6mph /  9.7km/h 8mph /  12.9km/h 72% 0in /  0.0mm 323 W/m2
11:51 57 °F /  13.9 °C 47.3 °F /  8.5 °C 29.6in /  1003.7hPa WNW 4.9mph /  7.9km/h 14mph /  22.5km/h 70% 0in /  0.0mm 287 W/m2
11:56 56.8 °F /  13.8 °C 47.8 °F /  8.8 °C 29.6in /  1003.7hPa North 4mph /  6.4km/h 7mph /  11.3km/h 72% 0in /  0.0mm 308 W/m2
12:01 56.8 °F /  13.8 °C 48.2 °F /  9 °C 29.6in /  1003.4hPa NW 2.9mph /  4.7km/h 14mph /  22.5km/h 73% 0in /  0.0mm 192 W/m2
12:06 56.8 °F /  13.8 °C 47.8 °F /  8.8 °C 29.6in /  1003.4hPa North 4mph /  6.4km/h 8mph /  12.9km/h 72% 0in /  0.0mm 218 W/m2
12:11 57 °F /  13.9 °C 48.4 °F /  9.1 °C 29.6in /  1003.4hPa West 2mph /  3.2km/h 4mph /  6.4km/h 73% 0in /  0.0mm 926 W/m2
12:16 57.6 °F /  14.2 °C 48.6 °F /  9.2 °C 29.6in /  1003.4hPa WSW 2mph /  3.2km/h 7mph /  11.3km/h 72% 0in /  0.0mm 192 W/m2
12:21 57.6 °F /  14.2 °C 47.8 °F /  8.8 °C 29.6in /  1003.4hPa NW 4mph /  6.4km/h 8mph /  12.9km/h 70% 0in /  0.0mm 357 W/m2
12:26 57.9 °F /  14.4 °C 48.6 °F /  9.2 °C 29.6in /  1003.0hPa SW 2.9mph /  4.7km/h 4mph /  6.4km/h 71% 0in /  0.0mm 1109 W/m2
12:31 57.9 °F /  14.4 °C 47.8 °F /  8.8 °C 29.6in /  1003.0hPa NW 4mph /  6.4km/h 6mph /  9.7km/h 69% 0in /  0.0mm 415 W/m2
12:36 57.7 °F /  14.3 °C 47.7 °F /  8.7 °C 29.6in /  1003.0hPa Calm   5mph /  8km/h 69% 0in /  0.0mm 318 W/m2
12:41 57.9 °F /  14.4 °C 47.8 °F /  8.8 °C 29.6in /  1003.0hPa West 6mph /  9.7km/h 6mph /  9.7km/h 69% 0in /  0.0mm 265 W/m2
12:46 57.7 °F /  14.3 °C 48 °F /  8.9 °C 29.6in /  1003.0hPa SW 6mph /  9.7km/h 9mph /  14.5km/h 70% 0in /  0.0mm 255 W/m2
12:51 57.7 °F /  14.3 °C 47.7 °F /  8.7 °C 29.6in /  1003.0hPa SW 2.9mph /  4.7km/h 6mph /  9.7km/h 69% 0in /  0.0mm 206 W/m2
12:56 57.7 °F /  14.3 °C 48.4 °F /  9.1 °C 29.6in /  1002.7hPa ESE 8mph /  12.9km/h 8mph /  12.9km/h 71% 0in /  0.0mm 294 W/m2
13:01 58.1 °F /  14.5 °C 48.4 °F /  9.1 °C 29.6in /  1002.7hPa WNW 0.9mph /  1.4km/h 6mph /  9.7km/h 70% 0in /  0.0mm 279 W/m2
13:06 58.1 °F /  14.5 °C 47.7 °F /  8.7 °C 29.6in /  1002.7hPa West 2mph /  3.2km/h 7mph /  11.3km/h 68% 0in /  0.0mm 294 W/m2
13:11 57.9 °F /  14.4 °C 47.8 °F /  8.8 °C 29.6in /  1002.7hPa NNW 2.9mph /  4.7km/h 9mph /  14.5km/h 69% 0in /  0.0mm 255 W/m2
13:16 58.3 °F /  14.6 °C 47.8 °F /  8.8 °C 29.6in /  1002.7hPa West 6.9mph /  11.1km/h 8mph /  12.9km/h 68% 0in /  0.0mm 745 W/m2
13:21 58.6 °F /  14.8 °C 47.3 °F /  8.5 °C 29.6in /  1002.7hPa NW 6mph /  9.7km/h 9mph /  14.5km/h 66% 0in /  0.0mm 415 W/m2
13:26 59 °F /  15 °C 47.3 °F /  8.5 °C 29.6in /  1002.4hPa NNW 8.1mph /  13km/h 8mph /  12.9km/h 65% 0in /  0.0mm 415 W/m2
13:31 59.4 °F /  15.2 °C 48 °F /  8.9 °C 29.6in /  1002.4hPa WSW 2mph /  3.2km/h 5mph /  8km/h 66% 0in /  0.0mm 415 W/m2
13:36 59.7 °F /  15.4 °C 48.4 °F /  9.1 °C 29.6in /  1002.4hPa SW 2mph /  3.2km/h 4mph /  6.4km/h 66% 0in /  0.0mm 422 W/m2
13:41 60.1 °F /  15.6 °C 48.2 °F /  9 °C 29.6in /  1002.0hPa North 2.9mph /  4.7km/h 3mph /  4.8km/h 65% 0in /  0.0mm 332 W/m2
13:46 60.1 °F /  15.6 °C 47.8 °F /  8.8 °C 29.6in /  1002.4hPa ENE 2.9mph /  4.7km/h 13mph /  20.9km/h 64% 0in /  0.0mm 353 W/m2
13:51 59.7 °F /  15.4 °C 48 °F /  8.9 °C 29.6in /  1002.0hPa WSW 4.9mph /  7.9km/h 8mph /  12.9km/h 65% 0in /  0.0mm 450 W/m2
13:56 59.7 °F /  15.4 °C 48 °F /  8.9 °C 29.6in /  1002.0hPa ENE 0.9mph /  1.4km/h 13mph /  20.9km/h 65% 0in /  0.0mm 362 W/m2
14:01 59.5 °F /  15.3 °C 47.8 °F /  8.8 °C 29.6in /  1002.0hPa NNW 2mph /  3.2km/h 5mph /  8km/h 65% 0in /  0.0mm 211 W/m2
14:06 59.4 °F /  15.2 °C 48.4 °F /  9.1 °C 29.6in /  1002.0hPa ENE 2.9mph /  4.7km/h 7mph /  11.3km/h 67% 0in /  0.0mm 183 W/m2
14:11 59.4 °F /  15.2 °C 49.6 °F /  9.8 °C 29.6in /  1002.0hPa Calm   3mph /  4.8km/h 70% 0in /  0.0mm 422 W/m2
14:16 59.5 °F /  15.3 °C 49.8 °F /  9.9 °C 29.6in /  1002.0hPa WNW 2.9mph /  4.7km/h 4mph /  6.4km/h 70% 0in /  0.0mm 417 W/m2
14:21 59.5 °F /  15.3 °C 49.3 °F /  9.6 °C 29.6in /  1001.7hPa WNW 7mph /  11.3km/h 7mph /  11.3km/h 69% 0in /  0.0mm 427 W/m2
14:26 59.7 °F /  15.4 °C 49.1 °F /  9.5 °C 29.6in /  1001.7hPa SSW 4mph /  6.4km/h 6mph /  9.7km/h 68% 0in /  0.0mm 499 W/m2
14:31 60.1 °F /  15.6 °C 49.1 °F /  9.5 °C 29.6in /  1001.7hPa WSW 2.9mph /  4.7km/h 3mph /  4.8km/h 67% 0in /  0.0mm 540 W/m2
14:36 60.8 °F /  16 °C 49.5 °F /  9.7 °C 29.6in /  1001.7hPa West 4mph /  6.4km/h 7mph /  11.3km/h 66% 0in /  0.0mm 940 W/m2
14:41 61 °F /  16.1 °C 48.7 °F /  9.3 °C 29.6in /  1001.7hPa West 6.9mph /  11.1km/h 11mph /  17.7km/h 64% 0in /  0.0mm 236 W/m2
14:46 60.3 °F /  15.7 °C 48.4 °F /  9.1 °C 29.6in /  1001.7hPa NW 4mph /  6.4km/h 11mph /  17.7km/h 65% 0in /  0.0mm 320 W/m2
14:51 60.1 °F /  15.6 °C 49.5 °F /  9.7 °C 29.6in /  1001.7hPa NW 2mph /  3.2km/h 4mph /  6.4km/h 68% 0in /  0.0mm 538 W/m2
14:56 60.3 °F /  15.7 °C 49.6 °F /  9.8 °C 29.6in /  1001.4hPa WNW 2mph /  3.2km/h 9mph /  14.5km/h 68% 0in /  0.0mm 636 W/m2
15:01 60.4 °F /  15.8 °C 49.5 °F /  9.7 °C 29.6in /  1001.4hPa WNW 2mph /  3.2km/h 6mph /  9.7km/h 67% 0in /  0.0mm 251 W/m2
15:06 60.6 °F /  15.9 °C 50 °F /  10 °C 29.6in /  1001.4hPa West 6mph /  9.7km/h 9mph /  14.5km/h 68% 0in /  0.0mm 339 W/m2
15:11 60.8 °F /  16 °C 49.8 °F /  9.9 °C 29.6in /  1001.4hPa NNW 2.9mph /  4.7km/h 5mph /  8km/h 67% 0in /  0.0mm 527 W/m2
15:16 61 °F /  16.1 °C 49.1 °F /  9.5 °C 29.6in /  1001.4hPa ENE 2.9mph /  4.7km/h 12mph /  19.3km/h 65% 0in /  0.0mm 902 W/m2
15:21 61.5 °F /  16.4 °C 49.6 °F /  9.8 °C 29.6in /  1001.0hPa WNW 4.9mph /  7.9km/h 8mph /  12.9km/h 65% 0in /  0.0mm 942 W/m2
15:26 62.1 °F /  16.7 °C 50.2 °F /  10.1 °C 29.6in /  1001.0hPa WSW 0.9mph /  1.4km/h 12mph /  19.3km/h 65% 0in /  0.0mm 178 W/m2
15:31 62.1 °F /  16.7 °C 48.4 °F /  9.1 °C 29.6in /  1001.0hPa ENE 2mph /  3.2km/h 5mph /  8km/h 61% 0in /  0.0mm 185 W/m2
15:36 61.7 °F /  16.5 °C 48.6 °F /  9.2 °C 29.6in /  1001.0hPa East 2mph /  3.2km/h 6mph /  9.7km/h 62% 0in /  0.0mm 309 W/m2
15:41 61.5 °F /  16.4 °C 48.4 °F /  9.1 °C 29.6in /  1000.7hPa NNE 0.9mph /  1.4km/h 4mph /  6.4km/h 62% 0in /  0.0mm 160 W/m2
15:46 61.2 °F /  16.2 °C 47.7 °F /  8.7 °C 29.6in /  1001.0hPa WNW 2mph /  3.2km/h 5mph /  8km/h 61% 0in /  0.0mm 329 W/m2
15:52 61.3 °F /  16.3 °C 48.6 °F /  9.2 °C 29.6in /  1000.7hPa WNW 4.9mph /  7.9km/h 7mph /  11.3km/h 63% 0in /  0.0mm 241 W/m2
15:57 61.3 °F /  16.3 °C 48.2 °F /  9 °C 29.6in /  1000.7hPa WSW 4mph /  6.4km/h 8mph /  12.9km/h 62% 0in /  0.0mm 130 W/m2
16:02 61.2 °F /  16.2 °C 48.4 °F /  9.1 °C 29.6in /  1000.7hPa WNW 2mph /  3.2km/h 3mph /  4.8km/h 63% 0in /  0.0mm 116 W/m2
16:07 61 °F /  16.1 °C 48.7 °F /  9.3 °C 29.6in /  1000.7hPa West 2.9mph /  4.7km/h 8mph /  12.9km/h 64% 0in /  0.0mm 77 W/m2
16:12 60.4 °F /  15.8 °C 48.6 °F /  9.2 °C 29.6in /  1000.7hPa West 0.9mph /  1.4km/h 4mph /  6.4km/h 65% 0in /  0.0mm 56 W/m2
16:17 59.9 °F /  15.5 °C 49.6 °F /  9.8 °C 29.6in /  1001.0hPa NNW 13mph /  20.9km/h 13mph /  20.9km/h 69% 0in /  0.0mm 74 W/m2
16:22 59 °F /  15 °C 49.6 °F /  9.8 °C 29.6in /  1001.0hPa West 6mph /  9.7km/h 10mph /  16.1km/h 71% 0in /  0.0mm 171 W/m2
16:27 58.3 °F /  14.6 °C 48.9 °F /  9.4 °C 29.6in /  1001.0hPa NW 6.9mph /  11.1km/h 7mph /  11.3km/h 71% 0in /  0.0mm 373 W/m2
16:32 57.9 °F /  14.4 °C 49.3 °F /  9.6 °C 29.6in /  1001.0hPa WNW 8.9mph /  14.3km/h 12mph /  19.3km/h 73% 0in /  0.0mm 362 W/m2
16:37 57.7 °F /  14.3 °C 49.5 °F /  9.7 °C 29.6in /  1001.4hPa WNW 8.1mph /  13km/h 8mph /  12.9km/h 74% 0in /  0.0mm 213 W/m2
16:42 57.6 °F /  14.2 °C 49.6 °F /  9.8 °C 29.6in /  1001.4hPa West 0.9mph /  1.4km/h 12mph /  19.3km/h 75% 0in /  0.0mm 188 W/m2
16:47 57.4 °F /  14.1 °C 50.2 °F /  10.1 °C 29.6in /  1001.4hPa WNW 2mph /  3.2km/h 4mph /  6.4km/h 77% 0in /  0.0mm 204 W/m2
16:52 56.8 °F /  13.8 °C 50 °F /  10 °C 29.6in /  1001.4hPa NW 2.9mph /  4.7km/h 9mph /  14.5km/h 78% 0in /  0.0mm 255 W/m2
16:57 56.5 °F /  13.6 °C 50.4 °F /  10.2 °C 29.6in /  1001.4hPa WNW 2.9mph /  4.7km/h 6mph /  9.7km/h 80% 0in /  0.0mm 206 W/m2
17:02 56.3 °F /  13.5 °C 50.5 °F /  10.3 °C 29.6in /  1001.4hPa WNW 4.9mph /  7.9km/h 7mph /  11.3km/h 81% 0in /  0.0mm 244 W/m2
17:07 56.3 °F /  13.5 °C 51.3 °F /  10.7 °C 29.6in /  1001.4hPa NW 4mph /  6.4km/h 4mph /  6.4km/h 83% 0in /  0.0mm 255 W/m2
17:12 56.5 °F /  13.6 °C 51.6 °F /  10.9 °C 29.6in /  1001.4hPa WNW 2.9mph /  4.7km/h 5mph /  8km/h 84% 0in /  0.0mm 251 W/m2
17:17 56.7 °F /  13.7 °C 52.2 °F /  11.2 °C 29.6in /  1001.4hPa WNW 2.9mph /  4.7km/h 3mph /  4.8km/h 85% 0in /  0.0mm 526 W/m2
17:22 57 °F /  13.9 °C 52.2 °F /  11.2 °C 29.6in /  1001.0hPa NNW 2mph /  3.2km/h 7mph /  11.3km/h 84% 0in /  0.0mm 308 W/m2
17:27 57.2 °F /  14 °C 52.2 °F /  11.2 °C 29.6in /  1001.0hPa NW 4.9mph /  7.9km/h 10mph /  16.1km/h 83% 0in /  0.0mm 287 W/m2
17:32 57.4 °F /  14.1 °C 49.1 °F /  9.5 °C 29.6in /  1000.7hPa WSW 2mph /  3.2km/h 7mph /  11.3km/h 74% 0in /  0.0mm 246 W/m2
17:37 57.4 °F /  14.1 °C 49.1 °F /  9.5 °C 29.6in /  1000.7hPa Calm   10mph /  16.1km/h 74% 0in /  0.0mm 204 W/m2
17:42 57.6 °F /  14.2 °C 49.6 °F /  9.8 °C 29.5in /  1000.3hPa NE 0.9mph /  1.4km/h 5mph /  8km/h 75% 0in /  0.0mm 285 W/m2
17:47 58.3 °F /  14.6 °C 50.7 °F /  10.4 °C 29.6in /  1000.7hPa WNW 0.9mph /  1.4km/h 4mph /  6.4km/h 76% 0in /  0.0mm 596 W/m2
17:52 58.6 °F /  14.8 °C 50.4 °F /  10.2 °C 29.6in /  1000.7hPa NW 4mph /  6.4km/h 7mph /  11.3km/h 74% 0in /  0.0mm 262 W/m2
17:57 58.3 °F /  14.6 °C 49.3 °F /  9.6 °C 29.6in /  1000.7hPa West 4mph /  6.4km/h 8mph /  12.9km/h 72% 0in /  0.0mm 114 W/m2
18:02 57.7 °F /  14.3 °C 49.5 °F /  9.7 °C 29.6in /  1000.7hPa WNW 0.9mph /  1.4km/h 4mph /  6.4km/h 74% 0in /  0.0mm 153 W/m2
18:07 58.1 °F /  14.5 °C 49.8 °F /  9.9 °C 29.6in /  1000.7hPa NW 2mph /  3.2km/h 9mph /  14.5km/h 74% 0in /  0.0mm 540 W/m2
18:12 58.6 °F /  14.8 °C 50 °F /  10 °C 29.6in /  1000.7hPa West 8.1mph /  13km/h 8mph /  12.9km/h 73% 0in /  0.0mm 127 W/m2
18:17 59 °F /  15 °C 50 °F /  10 °C 29.6in /  1000.7hPa Calm   3mph /  4.8km/h 72% 0in /  0.0mm 227 W/m2
18:22 58.8 °F /  14.9 °C 50.5 °F /  10.3 °C 29.6in /  1000.7hPa SSW 2mph /  3.2km/h 4mph /  6.4km/h 74% 0in /  0.0mm 135 W/m2
18:27 58.8 °F /  14.9 °C 49.8 °F /  9.9 °C 29.6in /  1000.7hPa West 2.9mph /  4.7km/h 6mph /  9.7km/h 72% 0in /  0.0mm 455 W/m2
18:32 58.8 °F /  14.9 °C 50.2 °F /  10.1 °C 29.5in /  1000.3hPa Calm   5mph /  8km/h 73% 0in /  0.0mm 118 W/m2
18:37 58.6 °F /  14.8 °C 50.4 °F /  10.2 °C 29.6in /  1000.7hPa WNW 2mph /  3.2km/h 5mph /  8km/h 74% 0in /  0.0mm 216 W/m2
18:42 58.6 °F /  14.8 °C 50 °F /  10 °C 29.5in /  1000.3hPa Calm   4mph /  6.4km/h 73% 0in /  0.0mm 408 W/m2
18:47 59.2 °F /  15.1 °C 50.2 °F /  10.1 °C 29.5in /  1000.3hPa NW 0.9mph /  1.4km/h 2mph /  3.2km/h 72% 0in /  0.0mm 322 W/m2
18:52 59.4 °F /  15.2 °C 49.6 °F /  9.8 °C 29.5in /  1000.3hPa SW 2.9mph /  4.7km/h 8mph /  12.9km/h 70% 0in /  0.0mm 257 W/m2
18:57 59.2 °F /  15.1 °C 49.8 °F /  9.9 °C 29.5in /  1000.3hPa WSW 0.9mph /  1.4km/h 2mph /  3.2km/h 71% 0in /  0.0mm 156 W/m2
19:02 58.8 °F /  14.9 °C 49.8 °F /  9.9 °C 29.5in /  1000.3hPa Calm   4mph /  6.4km/h 72% 0in /  0.0mm 70 W/m2
19:07 58.6 °F /  14.8 °C 49.6 °F /  9.8 °C 29.5in /  1000.3hPa Calm   1mph /  1.6km/h 72% 0in /  0.0mm 260 W/m2
19:12 59.2 °F /  15.1 °C 50.2 °F /  10.1 °C 29.5in /  1000.3hPa WSW 2mph /  3.2km/h 2mph /  3.2km/h 72% 0in /  0.0mm 236 W/m2
19:17 59.5 °F /  15.3 °C 50.5 °F /  10.3 °C 29.5in /  1000.3hPa NW 0.9mph /  1.4km/h 3mph /  4.8km/h 72% 0in /  0.0mm 246 W/m2
19:22 60.1 °F /  15.6 °C 49.8 °F /  9.9 °C 29.5in /  1000.3hPa WNW 2mph /  3.2km/h 4mph /  6.4km/h 69% 0in /  0.0mm 258 W/m2
19:27 60.3 °F /  15.7 °C 49.6 °F /  9.8 °C 29.5in /  1000.3hPa WNW 0.9mph /  1.4km/h 6mph /  9.7km/h 68% 0in /  0.0mm 264 W/m2
19:32 60.3 °F /  15.7 °C 50 °F /  10 °C 29.5in /  1000.3hPa West 2.9mph /  4.7km/h 5mph /  8km/h 69% 0in /  0.0mm 227 W/m2
19:37 60.4 °F /  15.8 °C 50.2 °F /  10.1 °C 29.5in /  1000.3hPa West 0.9mph /  1.4km/h 3mph /  4.8km/h 69% 0in /  0.0mm 246 W/m2
19:42 59.9 °F /  15.5 °C 49.6 °F /  9.8 °C 29.5in /  1000.3hPa East 6mph /  9.7km/h 6mph /  9.7km/h 69% 0in /  0.0mm 49 W/m2
19:47 59.2 °F /  15.1 °C 49.8 °F /  9.9 °C 29.5in /  1000.3hPa NW 2mph /  3.2km/h 8mph /  12.9km/h 71% 0in /  0.0mm 46 W/m2
19:52 58.6 °F /  14.8 °C 50 °F /  10 °C 29.6in /  1000.7hPa Calm   2mph /  3.2km/h 73% 0in /  0.0mm 42 W/m2
19:57 58.3 °F /  14.6 °C 49.6 °F /  9.8 °C 29.6in /  1000.7hPa NNW 0.9mph /  1.4km/h 7mph /  11.3km/h 73% 0in /  0.0mm 63 W/m2
20:02 58.1 °F /  14.5 °C 49.8 °F /  9.9 °C 29.6in /  1000.7hPa West 2mph /  3.2km/h 3mph /  4.8km/h 74% 0in /  0.0mm 56 W/m2
20:07 57.7 °F /  14.3 °C 49.8 °F /  9.9 °C 29.6in /  1000.7hPa WNW 0.9mph /  1.4km/h 1mph /  1.6km/h 75% 0in /  0.0mm 23 W/m2
20:12 57.7 °F /  14.3 °C 49.8 °F /  9.9 °C 29.6in /  1000.7hPa SSW 0.9mph /  1.4km/h 3mph /  4.8km/h 75% 0in /  0.0mm 16 W/m2
20:17 57.6 °F /  14.2 °C 50 °F /  10 °C 29.6in /  1000.7hPa Calm   2mph /  3.2km/h 76% 0in /  0.0mm 16 W/m2
20:22 57.4 °F /  14.1 °C 50.2 °F /  10.1 °C 29.6in /  1000.7hPa Calm   2mph /  3.2km/h 77% 0in /  0.0mm 21 W/m2
20:27 57 °F /  13.9 °C 50.2 °F /  10.1 °C 29.6in /  1000.7hPa SSW 0.9mph /  1.4km/h 1mph /  1.6km/h 78% 0in /  0.0mm 19 W/m2
20:32 56.8 °F /  13.8 °C 50.4 °F /  10.2 °C 29.6in /  1001.0hPa Calm     79% 0in /  0.0mm 14 W/m2
20:37 56.7 °F /  13.7 °C 50.2 °F /  10.1 °C 29.6in /  1001.0hPa Calm   1mph /  1.6km/h 79% 0in /  0.0mm 9 W/m2
20:42 56.3 °F /  13.5 °C 50.2 °F /  10.1 °C 29.6in /  1000.7hPa Calm     80% 0in /  0.0mm 5 W/m2
20:47 56.1 °F /  13.4 °C 50 °F /  10 °C 29.6in /  1000.7hPa SSW 0.9mph /  1.4km/h 3mph /  4.8km/h 80% 0.01in /  0.2mm 0 W/m2
20:52 55.8 °F /  13.2 °C 50.4 °F /  10.2 °C 29.6in /  1001.0hPa West 2.9mph /  4.7km/h 3mph /  4.8km/h 82% 0.12in /  3.0mm 0 W/m2
20:57 55 °F /  12.8 °C 50.4 °F /  10.2 °C 29.6in /  1001.0hPa NE 0.9mph /  1.4km/h 2mph /  3.2km/h 84% 0.14in /  3.6mm 0 W/m2
21:02 54.3 °F /  12.4 °C 50.2 °F /  10.1 °C 29.6in /  1001.4hPa WNW 2mph /  3.2km/h 3mph /  4.8km/h 86% 0.14in /  3.6mm 0 W/m2
21:07 54.1 °F /  12.3 °C 50.4 °F /  10.2 °C 29.6in /  1001.4hPa NW 4mph /  6.4km/h 6mph /  9.7km/h 87% 0.15in /  3.8mm 0 W/m2
21:12 54.1 °F /  12.3 °C 50.7 °F /  10.4 °C 29.6in /  1001.4hPa Calm   2mph /  3.2km/h 88% 0.15in /  3.8mm 0 W/m2
21:17 54 °F /  12.2 °C 50.5 °F /  10.3 °C 29.6in /  1001.7hPa WNW 4.9mph /  7.9km/h 8mph /  12.9km/h 88% 0.16in /  4.1mm 0 W/m2
21:22 53.4 °F /  11.9 °C 49.6 °F /  9.8 °C 29.6in /  1001.7hPa West 4mph /  6.4km/h 8mph /  12.9km/h 87% 0.18in /  4.6mm 0 W/m2
21:27 53.1 °F /  11.7 °C 49.3 °F /  9.6 °C 29.6in /  1001.7hPa NW 2mph /  3.2km/h 4mph /  6.4km/h 87% 0.23in /  5.8mm 0 W/m2
21:32 52.3 °F /  11.3 °C 48.6 °F /  9.2 °C 29.6in /  1001.4hPa Calm   7mph /  11.3km/h 87% 0.24in /  6.1mm 0 W/m2
21:37 51.6 °F /  10.9 °C 48.2 °F /  9 °C 29.6in /  1001.7hPa Calm   4mph /  6.4km/h 88% 0.24in /  6.1mm 0 W/m2
21:42 51.3 °F /  10.7 °C 47.8 °F /  8.8 °C 29.6in /  1002.0hPa West 4mph /  6.4km/h 7mph /  11.3km/h 88% 0.24in /  6.1mm 0 W/m2
21:47 51.1 °F /  10.6 °C 48 °F /  8.9 °C 29.6in /  1002.0hPa West 0.9mph /  1.4km/h 2mph /  3.2km/h 89% 0.24in /  6.1mm 0 W/m2
21:52 50.9 °F /  10.5 °C 47.8 °F /  8.8 °C 29.6in /  1002.0hPa West 0.9mph /  1.4km/h 2mph /  3.2km/h 89% 0.13in /  3.3mm 0 W/m2
21:57 50.7 °F /  10.4 °C 47.8 °F /  8.8 °C 29.6in /  1002.0hPa Calm   2mph /  3.2km/h 90% 0.1in /  2.5mm 0 W/m2
22:02 50.5 °F /  10.3 °C 47.7 °F /  8.7 °C 29.6in /  1002.0hPa NW 2mph /  3.2km/h 2mph /  3.2km/h 90% 0.1in /  2.5mm 0 W/m2
22:07 50.5 °F /  10.3 °C 48 °F /  8.9 °C 29.6in /  1002.4hPa West 2.9mph /  4.7km/h 4mph /  6.4km/h 91% 0.09in /  2.3mm 0 W/m2
22:12 50.4 °F /  10.2 °C 47.8 °F /  8.8 °C 29.6in /  1002.4hPa West 2.9mph /  4.7km/h 3mph /  4.8km/h 91% 0.09in /  2.3mm 0 W/m2
22:17 50.2 °F /  10.1 °C 48 °F /  8.9 °C 29.6in /  1002.4hPa Calm   1mph /  1.6km/h 92% 0.09in /  2.3mm 0 W/m2
22:22 50.2 °F /  10.1 °C 48 °F /  8.9 °C 29.6in /  1002.4hPa Calm     92% 0.07in /  1.8mm 0 W/m2
22:27 50 °F /  10 °C 47.8 °F /  8.8 °C 29.6in /  1002.4hPa Calm   2mph /  3.2km/h 92% 0.02in /  0.5mm 0 W/m2
22:32 50.2 °F /  10.1 °C 48.2 °F /  9 °C 29.6in /  1002.4hPa ENE 0.9mph /  1.4km/h 2mph /  3.2km/h 93% 0.02in /  0.5mm 0 W/m2
22:37 50.2 °F /  10.1 °C 48.2 °F /  9 °C 29.6in /  1002.4hPa Calm   1mph /  1.6km/h 93% 0.02in /  0.5mm 0 W/m2
22:42 50.4 °F /  10.2 °C 48.4 °F /  9.1 °C 29.6in /  1002.4hPa Calm     93% 0.01in /  0.2mm 0 W/m2
22:47 50.4 °F /  10.2 °C 48.4 °F /  9.1 °C 29.6in /  1002.4hPa East 0.9mph /  1.4km/h 1mph /  1.6km/h 93% 0.01in /  0.2mm 0 W/m2
22:52 50.4 °F /  10.2 °C 48.4 °F /  9.1 °C 29.6in /  1002.4hPa East 0.9mph /  1.4km/h 2mph /  3.2km/h 93% 0.01in /  0.2mm 0 W/m2
22:57 50.2 °F /  10.1 °C 48.2 °F /  9 °C 29.6in /  1002.4hPa Calm   1mph /  1.6km/h 93% 0.01in /  0.2mm 0 W/m2
23:02 50.2 °F /  10.1 °C 48.2 °F /  9 °C 29.6in /  1002.4hPa Calm   2mph /  3.2km/h 93% 0.01in /  0.2mm 0 W/m2
23:07 50.2 °F /  10.1 °C 48.6 °F /  9.2 °C 29.6in /  1002.4hPa Calm   2mph /  3.2km/h 94% 0.01in /  0.2mm 0 W/m2
23:12 50.2 °F /  10.1 °C 48.6 °F /  9.2 °C 29.6in /  1002.4hPa Calm   1mph /  1.6km/h 94% 0.01in /  0.2mm 0 W/m2
23:17 50.2 °F /  10.1 °C 48.2 °F /  9 °C 29.6in /  1002.4hPa North 2mph /  3.2km/h 2mph /  3.2km/h 93% 0in /  0.0mm 0 W/m2
23:22 50.2 °F /  10.1 °C 48.6 °F /  9.2 °C 29.6in /  1002.4hPa Calm   2mph /  3.2km/h 94% 0in /  0.0mm 0 W/m2
23:27 50.4 °F /  10.2 °C 48.4 °F /  9.1 °C 29.6in /  1002.4hPa Calm   2mph /  3.2km/h 93% 0in /  0.0mm 0 W/m2
23:32 50.4 °F /  10.2 °C 48.4 °F /  9.1 °C 29.6in /  1002.7hPa Calm   1mph /  1.6km/h 93% 0in /  0.0mm 0 W/m2
23:37 50.4 °F /  10.2 °C 48.4 °F /  9.1 °C 29.6in /  1002.7hPa Calm   4mph /  6.4km/h 93% 0in /  0.0mm 0 W/m2
23:42 50.4 °F /  10.2 °C 48.4 °F /  9.1 °C 29.6in /  1002.7hPa WNW 2mph /  3.2km/h 9mph /  14.5km/h 93% 0in /  0.0mm 0 W/m2
23:47 50.4 °F /  10.2 °C 48.2 °F /  9 °C 29.6in /  1002.7hPa NW 2mph /  3.2km/h 4mph /  6.4km/h 92% 0in /  0.0mm 0 W/m2
23:52 50.5 °F /  10.3 °C 48.4 °F /  9.1 °C 29.6in /  1002.7hPa WSW 0.9mph /  1.4km/h 8mph /  12.9km/h 92% 0in /  0.0mm 0 W/m2
23:57 50.5 °F /  10.3 °C 48.4 °F /  9.1 °C 29.6in /  1002.7hPa West 2mph /  3.2km/h 3mph /  4.8km/h 92% 0in /  0.0mm 0 W/m2
Juneau County Weather
Compliments of Weather Underground - 4 mb